NCAR-RAP Real-Time Weather Data

Output produced by METARs form (14 October 2019  22:33 UTC)
found at http://weather.rap.ucar.edu/surface/
 
KSAV 142153Z 32006KT 10SM FEW050 FEW065 SCT080 SCT200 29/17 A3003 RMK AO2 SLP169 T02890172 $
KSAV 142053Z 29008KT 10SM FEW050 FEW065 SCT080 SCT200 29/17 A3003 RMK AO2 SLP167 T02940172 56009 $
KSAV 141953Z 29005KT 10SM FEW050 SCT070 BKN085 BKN200 30/18 A3003 RMK AO2 SLP168 T03000178 $
KSAV 141853Z 32008KT 10SM FEW020 SCT095 SCT250 29/19 A3003 RMK AO2 SLP169 T02940189 $
KSAV 141753Z 26008KT 10SM FEW020 SCT095 SCT250 29/19 A3005 RMK AO2 SLP176 T02890189 10289 20206 58012 $
KSAV 141653Z 29007KT 10SM FEW020 BKN095 BKN250 28/21 A3007 RMK AO2 SLP181 T02780206 $
KSAV 141553Z 28007KT 250V320 10SM FEW015 FEW090 SCT250 26/21 A3008 RMK AO2 SLP185 T02610206 $
KSAV 141453Z 31006KT 10SM FEW010 FEW090 FEW250 25/21 A3009 RMK AO2 SLP188 T02500211 51008 $
KSAV 141353Z 30005KT 10SM FEW007 FEW070 SCT160 23/21 A3009 RMK AO2 SLP187 T02280211 $
KSAV 141253Z 25004KT 10SM FEW006 FEW070 BKN160 21/21 A3007 RMK AO2 SLP183 T02110206 $
KSAV 141153Z 24003KT 10SM FEW005 SCT075 BKN160 21/20 A3007 RMK AO2 SLP180 60021 70021 T02060200 10228 20206 53005 $
KSAV 141053Z 25004KT 10SM FEW005 FEW045 BKN090 OVC130 21/21 A3006 RMK AO2 RAE21 TSE05 SLP178 P0002 T02060206 $
KSAV 141005Z 23006KT 9SM -RA FEW055 BKN100 OVC130 21/20 A3005 RMK AO2 TSE05 OCNL LTG DSNT SE-S TS MOV CB DSNT SE-S MOV E P0002 T02060200 $
KSAV 140953Z 21006KT 8SM -TSRA FEW045CB SCT095 OVC120 21/20 A3004 RMK AO2 LTG DSNT S TSB53 SLP171 OCNL LTGICCC SE-S TS SE-S MOV E P0019 T02110200 $
KSAV 140928Z AUTO 18006KT 4SM VCTS +RA BR FEW037 BKN055 OVC110 22/21 A3004 RMK AO2 LTG DSNT SW P0011 T02170206 $
KSAV 140921Z AUTO 20003KT 3SM +RA BR SCT037 BKN055 OVC090 22/21 A3005 RMK AO2 LTG DSNT SW AND W P0007 T02170206 $
KSAV 140906Z AUTO 30003KT 5SM VCTS RA BR SCT038 BKN050 OVC090 22/20 A3005 RMK AO2 LTG DSNT SW AND W P0001 T02220200 $
KSAV 140853Z AUTO 00000KT 8SM -RA BKN038 BKN048 OVC060 22/20 A3005 RMK AO2 LTG DSNT N AND W RAB38 SLP175 P0000 60000 T02220200 55000 $
KSAV 140753Z AUTO 00000KT 10SM OVC060 22/20 A3003 RMK AO2 SLP169 T02220200 $
KSAV 140653Z AUTO 28003KT 10SM FEW041 22/20 A3005 RMK AO2 SLP175 T02220200 $
KSAV 140553Z AUTO 00000KT 10SM FEW060 OVC080 23/20 A3005 RMK AO2 SLP175 T02280200 10250 20228 51003 $
KSAV 140453Z AUTO 19004KT 10SM SCT070 23/20 A3005 RMK AO2 SLP174 T02280200 403060183 $
KSAV 140353Z 18003KT 10SM CLR 23/20 A3005 RMK AO2 SLP173 LAST T02280200 $
KSAV 140253Z 17005KT 10SM FEW250 23/20 A3004 RMK AO2 SLP172 T02280200 50003 $
KSAV 140153Z 18004KT 10SM SCT250 24/20 A3005 RMK AO2 SLP174 T02390200 $
KSAV 140053Z 17008KT 10SM FEW250 24/20 A3004 RMK AO2 SLP171 T02390200 $
KSAV 132353Z 17010KT 10SM FEW250 25/21 A3003 RMK AO2 SLP168 T02500206 10306 20250 51009 $
KSAV 132253Z 17010KT 10SM FEW065 SCT250 26/20 A3003 RMK AO2 SLP166 T02560200 $
KSAV 132153Z 16012KT 10SM FEW055 BKN250 28/19 A3001 RMK AO2 SLP161 T02780194 $
KSAV 132053Z 17010KT 10SM FEW050 BKN250 29/19 A3000 RMK AO2 SLP159 T02890189 55009 $
KSAV 131953Z 17010KT 10SM SCT050 BKN250 29/18 A3000 RMK AO2 SLP157 T02940183 $
KSAV 131853Z 19007KT 10SM SCT055 BKN250 29/18 A3001 RMK AO2 SLP161 T02940183 $
KSAV 131753Z VRB03KT 10SM SCT045 SCT250 28/18 A3003 RMK AO2 SLP168 T02830183 10300 20200 58019 $
KSAV 131653Z 20007KT 10SM SCT035 SCT250 29/19 A3005 RMK AO2 SLP176 T02890189 $
KSAV 131553Z 24010KT 10SM FEW035 FEW075 FEW250 28/19 A3007 RMK AO2 SLP183 T02780194 $
KSAV 131453Z 22012KT 10SM FEW035 FEW075 FEW250 27/20 A3009 RMK AO2 SLP187 T02670200 50007 $
KSAV 131353Z 23006KT 10SM FEW030 FEW070 FEW250 24/20 A3009 RMK AO2 SLP188 T02440200 $
KSAV 131253Z 24006KT 10SM FEW030 FEW070 SCT250 22/20 A3008 RMK AO2 SLP185 T02170200 $
KSAV 131153Z 22005KT 10SM FEW030 FEW050 SCT250 20/19 A3006 RMK AO2 SLP180 T02000189 10200 20183 53010 $
KSAV 131053Z 00000KT 10SM FEW030 FEW250 18/18 A3005 RMK AO2 SLP173 T01830178 $
KSAV 130953Z 00000KT 10SM CLR 19/18 A3004 RMK AO2 SLP171 T01890183 $
KSAV 130853Z AUTO 00000KT 10SM CLR 19/18 A3003 RMK AO2 SLP169 T01890178 53000 $
KSAV 130753Z AUTO 00000KT 10SM CLR 19/18 A3002 RMK AO2 SLP165 T01940183 $
KSAV 130653Z AUTO 18003KT 10SM CLR 20/18 A3003 RMK AO2 SLP168 T02000183 $
KSAV 130553Z AUTO 18003KT 10SM CLR 20/18 A3003 RMK AO2 SLP169 T02000183 10233 20194 56005 $
KSAV 130453Z AUTO 00000KT 10SM CLR 21/18 A3004 RMK AO2 SLP170 T02060183 403000139 $
KSAV 130353Z 16003KT 10SM CLR 21/18 A3004 RMK AO2 SLP170 LAST T02060178 $
KSAV 130253Z 17004KT 10SM CLR 21/18 A3005 RMK AO2 SLP174 T02060178 50006 $
KSAV 130153Z 17004KT 10SM CLR 22/17 A3005 RMK AO2 SLP175 T02170172 $
KSAV 130053Z 15003KT 10SM CLR 22/17 A3004 RMK AO2 SLP172 T02220172 $
KSAV 122353Z 16006KT 10SM CLR 23/17 A3003 RMK AO2 SLP168 T02330167 10300 20233 53009 $
KSAV 122253Z 17007KT 10SM CLR 24/16 A3001 RMK AO2 SLP162 T02440161 $